Time;durP1;ratioP1;P1;durP2;ratioP2;P2;SDS_P1;SDS_P2;PMS_P1;PMS_P2;Temp;Humidity;BMP_temperature;BMP_pressure;BME280_temperature;BME280_humidity;BME280_pressure;Samples;Min_cycle;Max_cycle;Signal;HPM_P1;HPM_P2
2021/05/30 04:02:25;;;;;;;6.78;4.60;;;8.20;99.90;;;;;;5410447;22;89040;-87
2021/05/30 04:04:50;;;;;;;6.97;4.50;;;8.30;99.90;;;;;;4963168;28;86945;-85
2021/05/30 04:07:16;;;;;;;7.28;4.65;;;8.30;99.90;;;;;;4959744;28;86494;-85
2021/05/30 04:09:42;;;;;;;5.57;4.75;;;8.40;99.90;;;;;;4960154;28;87085;-85
2021/05/30 04:12:08;;;;;;;6.18;4.28;;;8.40;99.90;;;;;;4959636;28;86924;-84
2021/05/30 04:14:34;;;;;;;7.45;4.35;;;;;;;;;;4954584;28;88348;-83
2021/05/30 04:17:00;;;;;;;6.50;4.40;;;8.60;99.90;;;;;;4953743;28;86921;-84
2021/05/30 04:19:25;;;;;;;3.50;3.20;;;8.70;99.90;;;;;;4952717;28;87105;-84
2021/05/30 04:21:51;;;;;;;5.68;4.10;;;8.80;99.90;;;;;;4954011;28;87063;-84
2021/05/30 04:24:17;;;;;;;5.13;4.10;;;8.90;99.90;;;;;;4965492;28;87225;-85
2021/05/30 04:26:43;;;;;;;4.57;4.10;;;8.90;99.90;;;;;;4952870;28;87013;-84
2021/05/30 04:29:09;;;;;;;5.90;3.92;;;9.10;99.90;;;;;;4955206;28;86936;-84
2021/05/30 04:31:34;;;;;;;5.18;3.70;;;9.20;99.90;;;;;;4959542;28;87315;-83
2021/05/30 04:34:00;;;;;;;4.20;3.80;;;9.30;99.90;;;;;;4966220;28;86969;-85
2021/05/30 04:36:26;;;;;;;4.40;4.00;;;9.40;99.90;;;;;;4955488;28;87035;-83
2021/05/30 04:38:52;;;;;;;5.25;3.85;;;9.50;99.90;;;;;;4962199;28;88493;-84
2021/05/30 04:41:17;;;;;;;3.50;3.22;;;9.60;99.90;;;;;;4958027;28;87181;-84
2021/05/30 04:43:43;;;;;;;3.25;2.95;;;9.70;99.90;;;;;;4957427;28;87078;-83
2021/05/30 04:46:09;;;;;;;3.40;3.13;;;9.80;99.90;;;;;;4947320;28;87134;-84
2021/05/30 04:48:34;;;;;;;3.53;3.22;;;9.80;99.90;;;;;;4964872;28;88124;-84
2021/05/30 04:51:06;;;;;;;3.28;3.00;;;9.90;99.90;;;;;;4956033;28;87014;-84
2021/05/30 04:53:36;;;;;;;3.08;2.75;;;10.00;99.90;;;;;;4966087;28;86900;-85
2021/05/30 04:56:04;;;;;;;3.30;3.00;;;10.10;99.90;;;;;;4966455;28;86310;-85
2021/05/30 04:58:30;;;;;;;4.22;2.92;;;10.20;99.90;;;;;;4958376;28;89128;-85
2021/05/30 05:00:56;;;;;;;2.97;2.67;;;10.20;99.90;;;;;;4966003;28;87063;-85
2021/05/30 05:03:22;;;;;;;3.33;3.05;;;10.30;99.90;;;;;;4956290;28;88217;-85
2021/05/30 05:05:52;;;;;;;2.78;2.58;;;10.40;99.90;;;;;;4938949;28;86701;-84
2021/05/30 05:08:18;;;;;;;5.88;3.58;;;10.40;99.90;;;;;;4961983;28;87249;-84
2021/05/30 05:10:44;;;;;;;3.20;2.80;;;10.60;99.90;;;;;;4956107;28;88440;-86
2021/05/30 05:13:09;;;;;;;3.35;2.65;;;10.60;99.90;;;;;;4960192;28;86190;-84
2021/05/30 05:15:35;;;;;;;3.58;3.28;;;10.70;99.90;;;;;;4959027;28;86331;-83
2021/05/30 05:18:31;;;;;;;3.72;3.42;;;10.80;99.90;;;;;;4950198;28;87529;-84
2021/05/30 05:20:57;;;;;;;4.18;3.08;;;10.90;99.90;;;;;;4948518;28;86884;-84
2021/05/30 05:23:24;;;;;;;4.35;3.03;;;11.00;99.90;;;;;;4949890;28;87068;-85
2021/05/30 05:25:51;;;;;;;3.65;3.35;;;11.10;99.90;;;;;;4945583;28;88238;-83
2021/05/30 05:28:17;;;;;;;3.58;3.28;;;11.20;99.90;;;;;;4942826;28;89131;-83
2021/05/30 05:30:43;;;;;;;4.30;3.90;;;11.20;99.90;;;;;;4949599;28;87102;-85
2021/05/30 05:33:09;;;;;;;4.53;3.55;;;11.30;99.90;;;;;;4940003;28;86926;-83
2021/05/30 05:35:34;;;;;;;4.05;3.65;;;11.40;99.90;;;;;;4951948;28;86955;-83
2021/05/30 05:38:00;;;;;;;4.03;3.15;;;11.50;99.90;;;;;;4946392;28;88007;-81
2021/05/30 05:40:27;;;;;;;3.78;3.42;;;11.50;99.90;;;;;;4951637;28;86820;-84
2021/05/30 05:42:54;;;;;;;3.95;3.55;;;11.60;99.90;;;;;;4942765;28;86587;-82
2021/05/30 05:45:20;;;;;;;4.13;3.30;;;11.70;99.90;;;;;;4952790;28;86316;-81
2021/05/30 05:47:46;;;;;;;3.50;3.10;;;11.80;99.90;;;;;;4946498;28;87270;-80
2021/05/30 05:50:14;;;;;;;4.10;3.80;;;11.90;99.90;;;;;;4950997;28;87471;-82
2021/05/30 05:52:41;;;;;;;3.67;3.35;;;11.90;99.90;;;;;;4941587;28;88158;-82
2021/05/30 05:55:08;;;;;;;3.60;3.30;;;12.00;99.90;;;;;;4945310;28;87128;-83
2021/05/30 05:57:35;;;;;;;4.35;3.03;;;12.10;99.90;;;;;;4944521;28;89114;-84
2021/05/30 06:00:03;;;;;;;3.85;3.55;;;12.10;99.90;;;;;;4936057;28;88314;-83
2021/05/30 06:02:29;;;;;;;3.65;3.28;;;12.20;99.90;;;;;;4948663;28;86992;-83
2021/05/30 06:04:54;;;;;;;3.28;2.97;;;12.20;99.90;;;;;;4952894;28;87244;-83
2021/05/30 06:07:20;;;;;;;3.50;3.20;;;12.30;99.90;;;;;;4946939;28;86872;-83
2021/05/30 06:09:46;;;;;;;3.45;3.10;;;12.50;99.90;;;;;;4944365;28;86970;-83
2021/05/30 06:12:12;;;;;;;3.35;3.05;;;12.50;99.70;;;;;;4951707;28;86422;-84
2021/05/30 06:14:38;;;;;;;2.88;2.67;;;12.60;99.80;;;;;;4951536;28;86803;-81
2021/05/30 06:17:04;;;;;;;3.30;3.00;;;12.70;99.20;;;;;;4947632;28;87886;-83
2021/05/30 06:19:31;;;;;;;4.15;3.00;;;12.80;99.10;;;;;;4943659;28;87277;-85
2021/05/30 06:21:57;;;;;;;3.55;3.25;;;12.90;98.40;;;;;;4946317;28;87137;-83
2021/05/30 06:24:22;;;;;;;4.00;3.30;;;13.00;98.40;;;;;;4946130;28;86984;-83
2021/05/30 06:26:48;;;;;;;2.75;2.55;;;13.10;98.20;;;;;;4947837;28;87055;-83
2021/05/30 06:29:14;;;;;;;3.40;3.10;;;13.20;97.90;;;;;;4935155;28;87476;-82
2021/05/30 06:31:40;;;;;;;2.97;2.78;;;13.30;97.60;;;;;;4947867;28;86993;-82
2021/05/30 06:34:07;;;;;;;4.00;2.97;;;13.40;97.30;;;;;;4943145;28;86279;-83
2021/05/30 06:36:33;;;;;;;4.13;2.70;;;13.40;97.20;;;;;;4949977;28;87349;-81
2021/05/30 06:38:59;;;;;;;2.92;2.72;;;13.60;97.00;;;;;;4948783;28;86848;-85
2021/05/30 06:41:24;;;;;;;2.97;2.78;;;13.60;96.40;;;;;;4949076;28;88184;-83
2021/05/30 06:43:51;;;;;;;3.45;3.15;;;13.70;96.40;;;;;;4952651;28;86959;-85
2021/05/30 06:46:17;;;;;;;5.05;3.33;;;13.80;95.80;;;;;;4945919;28;87641;-84
2021/05/30 06:48:42;;;;;;;3.67;2.97;;;13.90;95.40;;;;;;4947450;28;87294;-83
2021/05/30 06:51:16;;;;;;;3.85;2.97;;;14.00;95.20;;;;;;4943437;28;87005;-84
2021/05/30 06:53:47;;;;;;;2.90;2.70;;;14.10;94.00;;;;;;4942702;28;86679;-83
2021/05/30 06:56:12;;;;;;;3.28;2.97;;;14.20;93.10;;;;;;4940741;28;89278;-83
2021/05/30 06:58:39;;;;;;;4.00;2.97;;;14.20;92.60;;;;;;4943330;28;86134;-87
2021/05/30 07:01:05;;;;;;;3.47;2.90;;;14.40;93.00;;;;;;4947139;28;86764;-84
2021/05/30 07:03:31;;;;;;;3.03;2.78;;;14.40;93.30;;;;;;4941587;28;86625;-84
2021/05/30 07:05:57;;;;;;;2.78;2.58;;;14.50;91.80;;;;;;4942172;28;87989;-85
2021/05/30 07:08:23;;;;;;;3.30;3.00;;;14.50;90.80;;;;;;4948061;28;87316;-84
2021/05/30 07:10:49;;;;;;;3.00;2.80;;;14.70;91.30;;;;;;4943123;28;87119;-84
2021/05/30 07:13:14;;;;;;;2.75;2.55;;;14.80;90.10;;;;;;4947828;28;86613;-85
2021/05/30 07:15:40;;;;;;;3.25;2.80;;;14.90;90.40;;;;;;4941144;28;86869;-87
2021/05/30 07:18:06;;;;;;;4.15;3.50;;;15.00;90.70;;;;;;4947877;28;88051;-87
2021/05/30 07:20:32;;;;;;;2.92;2.72;;;15.20;90.30;;;;;;4949461;28;86947;-87
2021/05/30 07:22:57;;;;;;;5.03;2.90;;;15.30;88.10;;;;;;4949795;28;85888;-85
2021/05/30 07:25:23;;;;;;;3.45;2.53;;;15.40;87.90;;;;;;4934401;28;87314;-85
2021/05/30 07:27:51;;;;;;;3.97;3.10;;;15.50;88.40;;;;;;4942639;28;87169;-85
2021/05/30 07:30:17;;;;;;;3.13;2.83;;;15.70;86.70;;;;;;4948537;28;87758;-83
2021/05/30 07:32:44;;;;;;;3.50;3.00;;;15.80;87.00;;;;;;4949167;28;87057;-86
2021/05/30 07:35:10;;;;;;;3.95;3.65;;;15.90;85.30;;;;;;4939811;28;87177;-86
2021/05/30 07:37:36;;;;;;;3.80;3.50;;;15.90;85.60;;;;;;4933225;28;87761;-84
2021/05/30 07:40:05;;;;;;;3.67;3.00;;;16.00;84.90;;;;;;4947275;28;86945;-87
2021/05/30 07:42:31;;;;;;;3.90;3.28;;;16.10;85.20;;;;;;4936607;28;87074;-83
2021/05/30 07:44:57;;;;;;;2.97;2.78;;;16.20;84.90;;;;;;4929842;28;87238;-85
2021/05/30 07:47:23;;;;;;;3.70;3.00;;;16.40;85.50;;;;;;4945327;28;86930;-82
2021/05/30 07:49:50;;;;;;;3.30;3.00;;;16.50;84.60;;;;;;4943696;28;86585;-82
2021/05/30 07:52:15;;;;;;;2.85;2.65;;;16.60;83.80;;;;;;4931719;28;87020;-81
2021/05/30 07:54:41;;;;;;;4.25;3.50;;;16.80;84.10;;;;;;4945458;28;88023;-82
2021/05/30 07:57:08;;;;;;;3.42;3.13;;;16.90;83.40;;;;;;4944814;28;88081;-82
2021/05/30 07:59:34;;;;;;;3.70;3.40;;;17.00;83.60;;;;;;4940183;28;87408;-84
2021/05/30 08:02:00;;;;;;;4.72;3.42;;;17.10;82.30;;;;;;4946290;28;86851;-83
2021/05/30 08:04:25;;;;;;;3.50;3.20;;;17.20;81.80;;;;;;4946663;28;86921;-85
2021/05/30 08:06:51;;;;;;;3.25;2.95;;;17.40;81.30;;;;;;4949436;28;86887;-85
2021/05/30 08:09:17;;;;;;;3.58;3.33;;;17.60;79.20;;;;;;4946846;28;87531;-85
2021/05/30 08:11:43;;;;;;;3.70;3.40;;;17.60;79.40;;;;;;4944551;28;85558;-83
2021/05/30 08:14:09;;;;;;;3.25;3.05;;;17.70;77.60;;;;;;4940814;28;88139;-84
2021/05/30 08:16:35;;;;;;;3.67;3.38;;;17.80;78.20;;;;;;4958387;28;87239;-85
2021/05/30 08:19:01;;;;;;;4.25;3.30;;;17.90;78.80;;;;;;4955564;28;88050;-83
2021/05/30 08:21:27;;;;;;;3.50;3.20;;;18.10;78.60;;;;;;4957828;28;86993;-83
2021/05/30 08:23:53;;;;;;;3.90;3.50;;;18.20;73.70;;;;;;4955176;28;86959;-82
2021/05/30 08:26:18;;;;;;;3.10;2.80;;;18.30;73.40;;;;;;4952209;28;88489;-84
2021/05/30 08:28:44;;;;;;;3.15;2.90;;;18.50;70.10;;;;;;4950796;28;86226;-81
2021/05/30 08:31:10;;;;;;;4.45;4.22;;;17.80;70.60;;;;;;4941437;28;87016;-83
2021/05/30 08:33:36;;;;;;;3.38;2.83;;;18.60;67.60;;;;;;4952943;28;87397;-82
2021/05/30 08:36:02;;;;;;;5.00;4.70;;;;;;;;;;4956318;28;86196;-85
2021/05/30 08:38:27;;;;;;;4.85;3.05;;;18.90;65.80;;;;;;4949455;28;87285;-83
2021/05/30 08:40:55;;;;;;;2.83;2.63;;;19.20;64.80;;;;;;4949016;28;87002;-85
2021/05/30 08:43:21;;;;;;;2.88;2.67;;;19.40;65.10;;;;;;4947928;28;88698;-84
2021/05/30 08:45:47;;;;;;;3.00;2.80;;;19.70;66.50;;;;;;4957433;28;87050;-82
2021/05/30 08:48:13;;;;;;;3.05;2.85;;;20.10;65.20;;;;;;4952492;28;86788;-83
2021/05/30 08:50:38;;;;;;;2.80;2.60;;;20.50;63.90;;;;;;4951123;28;87022;-85
2021/05/30 08:53:05;;;;;;;2.70;2.50;;;20.90;60.70;;;;;;4951309;28;88478;-82
2021/05/30 08:55:31;;;;;;;2.65;2.55;;;21.20;57.80;;;;;;4949730;28;86972;-82
2021/05/30 08:57:58;;;;;;;4.90;4.50;;;21.50;56.50;;;;;;4946690;28;86966;-83
2021/05/30 09:00:30;;;;;;;3.33;2.97;;;21.80;56.80;;;;;;4939944;28;86164;-82
2021/05/30 09:03:13;;;;;;;2.70;2.50;;;22.50;56.50;;;;;;4937495;28;87363;-84
2021/05/30 09:05:40;;;;;;;4.45;4.15;;;24.20;50.20;;;;;;4944799;28;87049;-85
2021/05/30 09:08:06;;;;;;;2.95;2.75;;;24.10;50.70;;;;;;4948804;28;87817;-86
2021/05/30 09:10:32;;;;;;;2.90;2.70;;;25.40;50.30;;;;;;4954535;28;86713;-84
2021/05/30 09:13:05;;;;;;;4.60;4.30;;;28.40;46.10;;;;;;4945860;28;87339;-84
2021/05/30 09:15:49;;;;;;;2.78;2.67;;;28.10;43.70;;;;;;4955829;28;86201;-84
2021/05/30 09:18:17;;;;;;;2.95;2.75;;;29.20;41.40;;;;;;4959054;28;86873;-84
2021/05/30 09:20:56;;;;;;;2.65;2.55;;;30.20;39.70;;;;;;4964540;28;86272;-83
2021/05/30 09:23:52;;;;;;;2.75;2.55;;;31.20;37.20;;;;;;4950659;28;86638;-84
2021/05/30 09:26:20;;;;;;;3.22;2.47;;;32.40;35.80;;;;;;4969098;28;86247;-82
2021/05/30 09:29:09;;;;;;;2.65;2.55;;;33.60;35.50;;;;;;4962346;28;86506;-85
2021/05/30 09:31:52;;;;;;;2.40;2.30;;;34.60;33.20;;;;;;4954866;28;86985;-85
2021/05/30 09:34:37;;;;;;;3.10;2.40;;;35.10;32.60;;;;;;4949894;28;88369;-84
2021/05/30 09:37:05;;;;;;;2.78;2.45;;;35.70;31.40;;;;;;4936167;28;89138;-86
2021/05/30 09:39:37;;;;;;;2.85;2.53;;;35.70;32.10;;;;;;4947882;28;86832;-86
2021/05/30 09:42:32;;;;;;;2.90;2.70;;;36.30;30.00;;;;;;4949136;28;87122;-83
2021/05/30 09:45:02;;;;;;;2.70;2.30;;;36.80;30.00;;;;;;4948380;28;87363;-85
2021/05/30 09:47:38;;;;;;;2.58;2.47;;;37.50;29.10;;;;;;4954035;28;87366;-84
2021/05/30 09:50:06;;;;;;;2.50;2.40;;;38.20;29.30;;;;;;4945117;28;86754;-84
2021/05/30 09:52:42;;;;;;;3.13;2.92;;;39.00;28.60;;;;;;4957698;28;87509;-85
2021/05/30 09:55:18;;;;;;;3.13;2.90;;;39.30;27.70;;;;;;4958974;28;87121;-82
2021/05/30 09:58:03;;;;;;;3.67;3.38;;;39.60;27.00;;;;;;4957360;28;87024;-86
2021/05/30 10:00:29;;;;;;;3.10;2.90;;;39.20;27.10;;;;;;4953037;28;87868;-84
2021/05/30 10:02:55;;;;;;;2.72;2.53;;;39.30;27.30;;;;;;4940360;28;86974;-86
2021/05/30 10:05:21;;;;;;;3.17;2.78;;;40.00;27.00;;;;;;4939307;28;88659;-85
2021/05/30 10:07:49;;;;;;;3.20;2.92;;;39.90;27.00;;;;;;4947119;28;87964;-86
2021/05/30 10:10:15;;;;;;;3.20;2.90;;;40.10;27.10;;;;;;4941104;28;86890;-86
2021/05/30 10:12:42;;;;;;;3.10;2.90;;;40.20;26.70;;;;;;4962550;28;87188;-85
2021/05/30 10:15:08;;;;;;;3.10;2.90;;;40.50;26.50;;;;;;4940770;28;88132;-87
2021/05/30 10:17:38;;;;;;;2.90;2.70;;;40.30;27.00;;;;;;4942765;28;87286;-85
2021/05/30 10:20:11;;;;;;;3.03;2.92;;;40.60;26.80;;;;;;4942353;28;86964;-84
2021/05/30 10:22:41;;;;;;;3.30;3.00;;;39.90;27.50;;;;;;4946144;28;87073;-85
2021/05/30 10:25:07;;;;;;;2.78;2.67;;;40.10;27.00;;;;;;4945702;28;88117;-85
2021/05/30 10:27:33;;;;;;;2.95;2.75;;;40.80;26.70;;;;;;4951232;28;88355;-86
2021/05/30 10:30:10;;;;;;;3.15;2.95;;;40.60;26.80;;;;;;4922589;28;87123;-85
2021/05/30 10:32:38;;;;;;;3.10;2.90;;;40.90;26.20;;;;;;4939784;28;86536;-87
2021/05/30 10:35:21;;;;;;;3.28;3.08;;;40.80;26.20;;;;;;4945923;28;87783;-86
2021/05/30 10:37:51;;;;;;;3.20;2.90;;;40.30;26.10;;;;;;4936971;28;88033;-87
2021/05/30 10:40:23;;;;;;;4.25;3.60;;;40.00;26.30;;;;;;4941453;28;88216;-88
2021/05/30 10:43:11;;;;;;;3.03;2.90;;;40.60;26.00;;;;;;4943024;28;86227;-90
2021/05/30 10:45:59;;;;;;;2.85;2.75;;;40.00;26.00;;;;;;4944683;28;87397;-86
2021/05/30 10:48:24;;;;;;;2.72;2.63;;;40.30;25.80;;;;;;4942457;28;87224;-86
2021/05/30 10:51:24;;;;;;;2.95;2.75;;;40.80;26.00;;;;;;4949136;28;87198;-87
2021/05/30 10:53:52;;;;;;;3.78;2.80;;;40.90;26.00;;;;;;4945409;28;86911;-84
2021/05/30 10:56:41;;;;;;;3.15;2.95;;;39.90;26.60;;;;;;4945562;28;87317;-88
2021/05/30 10:59:06;;;;;;;3.10;2.90;;;40.30;26.00;;;;;;4949248;28;86991;-85
2021/05/30 11:01:35;;;;;;;4.47;4.18;;;40.10;25.60;;;;;;4951203;28;87471;-86
2021/05/30 11:04:27;;;;;;;3.22;3.03;;;40.10;26.00;;;;;;4943238;28;87050;-84
2021/05/30 11:06:55;;;;;;;5.00;4.70;;;39.50;25.90;;;;;;4947516;28;87655;-83
2021/05/30 11:09:22;;;;;;;4.82;4.53;;;38.70;26.10;;;;;;4944755;28;87023;-83
2021/05/30 11:12:16;;;;;;;4.80;4.50;;;39.30;26.30;;;;;;4944103;28;86968;-84
2021/05/30 11:15:10;;;;;;;3.97;2.78;;;39.20;26.70;;;;;;4948920;28;87302;-84
2021/05/30 11:17:47;;;;;;;4.65;4.35;;;38.00;26.30;;;;;;4933718;28;87992;-85
2021/05/30 11:20:20;;;;;;;2.88;2.63;;;38.00;26.50;;;;;;4944462;28;87786;-86
2021/05/30 11:22:52;;;;;;;3.20;3.00;;;37.90;26.60;;;;;;4950225;28;86890;-85
2021/05/30 11:25:32;;;;;;;2.92;2.72;;;38.90;26.30;;;;;;4963053;28;86859;-85
2021/05/30 11:28:01;;;;;;;2.78;2.58;;;38.90;26.60;;;;;;4950797;28;87886;-86
2021/05/30 11:30:47;;;;;;;3.05;2.85;;;39.20;26.40;;;;;;4952432;28;87012;-84
2021/05/30 11:33:28;;;;;;;3.10;2.85;;;39.20;26.00;;;;;;4947520;28;86247;-84
2021/05/30 11:35:57;;;;;;;4.50;2.60;;;38.90;26.10;;;;;;4951807;28;86174;-85
2021/05/30 11:39:13;;;;;;;3.55;2.67;;;38.90;26.40;;;;;;4946212;28;86705;-84
2021/05/30 11:41:43;;;;;;;2.75;2.65;;;39.80;25.50;;;;;;4938507;28;87302;-85
2021/05/30 11:44:14;;;;;;;2.92;2.72;;;39.50;25.90;;;;;;4934449;28;87997;-86
2021/05/30 11:46:43;;;;;;;5.00;4.80;;;39.50;25.60;;;;;;4945058;28;86795;-85
2021/05/30 11:49:20;;;;;;;2.83;2.72;;;39.50;26.10;;;;;;4948454;28;87179;-85
2021/05/30 11:51:51;;;;;;;3.17;2.97;;;39.60;25.40;;;;;;4942313;28;87067;-85
2021/05/30 11:54:19;;;;;;;4.80;4.30;;;39.70;25.50;;;;;;4950240;28;87047;-86
2021/05/30 11:56:46;;;;;;;2.95;2.70;;;40.40;25.30;;;;;;4943334;28;87539;-86
2021/05/30 11:59:12;;;;;;;4.78;4.57;;;40.10;25.70;;;;;;4945901;28;87819;-84
2021/05/30 12:01:49;;;;;;;3.80;3.28;;;40.00;26.00;;;;;;4940294;28;86958;-84
2021/05/30 12:04:34;;;;;;;2.85;2.65;;;39.70;25.10;;;;;;4945703;28;87159;-85
2021/05/30 12:07:01;;;;;;;3.17;2.97;;;39.60;25.10;;;;;;4947950;28;86926;-84
2021/05/30 12:09:48;;;;;;;4.93;4.53;;;39.40;25.10;;;;;;4950209;28;88151;-84
2021/05/30 12:12:33;;;;;;;5.00;4.60;;;39.50;25.80;;;;;;4950060;28;88791;-85
2021/05/30 12:15:00;;;;;;;4.80;4.50;;;39.30;25.20;;;;;;4942389;28;86969;-84
2021/05/30 12:17:26;;;;;;;4.80;4.50;;;39.40;25.60;;;;;;4926268;28;87187;-85
2021/05/30 12:19:51;;;;;;;3.00;2.90;;;39.20;25.10;;;;;;4949581;28;87614;-85
2021/05/30 12:22:24;;;;;;;4.72;4.53;;;39.00;25.20;;;;;;4939590;28;86931;-84
2021/05/30 12:24:51;;;;;;;4.90;4.60;;;38.40;24.90;;;;;;4947338;28;87240;-85
2021/05/30 12:27:18;;;;;;;3.08;2.88;;;38.40;25.20;;;;;;4940404;28;86576;-84
2021/05/30 12:29:48;;;;;;;4.82;4.50;;;38.50;25.50;;;;;;4947631;28;87036;-84
2021/05/30 12:32:18;;;;;;;3.13;2.92;;;38.60;25.80;;;;;;4947571;28;87021;-86
2021/05/30 12:34:44;;;;;;;4.47;4.18;;;38.40;25.60;;;;;;4952237;28;88048;-84
2021/05/30 12:37:10;;;;;;;2.92;2.72;;;38.40;25.80;;;;;;4946657;28;86946;-86
2021/05/30 12:39:36;;;;;;;3.20;2.90;;;37.30;25.70;;;;;;4947052;28;87003;-84
2021/05/30 12:42:08;;;;;;;4.80;4.50;;;37.70;26.10;;;;;;4947020;28;87029;-85
2021/05/30 12:44:51;;;;;;;2.95;2.75;;;38.10;25.70;;;;;;4947849;28;86722;-85
2021/05/30 12:47:21;;;;;;;3.35;3.05;;;38.50;25.90;;;;;;4933377;28;86601;-82
2021/05/30 12:50:04;;;;;;;3.00;2.80;;;37.80;26.70;;;;;;4955732;28;86998;-83
2021/05/30 12:52:51;;;;;;;3.28;3.08;;;36.70;26.80;;;;;;4947753;28;86378;-83
2021/05/30 12:55:19;;;;;;;2.92;2.72;;;36.40;26.90;;;;;;4945327;28;87019;-84
2021/05/30 12:57:48;;;;;;;2.88;2.70;;;36.70;26.40;;;;;;4945855;28;86910;-82
2021/05/30 13:00:32;;;;;;;4.47;4.27;;;36.90;26.20;;;;;;4949467;28;88664;-82
2021/05/30 13:03:03;;;;;;;4.80;4.50;;;37.20;26.70;;;;;;4952892;28;87318;-83
2021/05/30 13:05:46;;;;;;;2.88;2.67;;;36.90;26.30;;;;;;4948799;28;87174;-83
2021/05/30 13:08:21;;;;;;;3.00;2.80;;;36.10;26.10;;;;;;4948319;28;87812;-85
2021/05/30 13:10:57;;;;;;;2.90;2.70;;;35.70;26.20;;;;;;4947331;28;87308;-83
2021/05/30 13:13:39;;;;;;;4.60;4.30;;;34.90;26.30;;;;;;4944014;28;88063;-83
2021/05/30 13:16:06;;;;;;;5.05;4.70;;;34.90;27.00;;;;;;4950829;28;86732;-84
2021/05/30 13:18:51;;;;;;;4.95;4.65;;;35.00;26.90;;;;;;4950046;28;86213;-83
2021/05/30 13:21:28;;;;;;;3.13;2.88;;;34.80;26.80;;;;;;4942569;28;87311;-85
2021/05/30 13:24:09;;;;;;;4.40;2.90;;;34.40;27.30;;;;;;4945934;28;87637;-84
2021/05/30 13:26:49;;;;;;;4.95;4.68;;;33.50;27.00;;;;;;4949343;28;87262;-85
2021/05/30 13:29:21;;;;;;;4.53;4.32;;;33.60;27.30;;;;;;4949486;28;87090;-84
2021/05/30 13:31:47;;;;;;;4.60;4.40;;;32.70;27.50;;;;;;4948688;28;87087;-84
2021/05/30 13:34:13;;;;;;;4.50;4.20;;;32.40;27.80;;;;;;4950527;28;87428;-84
2021/05/30 13:36:39;;;;;;;4.70;4.40;;;32.50;28.70;;;;;;4944254;28;86733;-83
2021/05/30 13:39:05;;;;;;;5.00;4.60;;;32.40;27.30;;;;;;4950330;28;87044;-84
2021/05/30 13:41:31;;;;;;;5.07;4.60;;;32.40;28.10;;;;;;4948405;28;87124;-83
2021/05/30 13:43:58;;;;;;;4.72;4.45;;;32.30;28.00;;;;;;4954326;28;87336;-83
2021/05/30 13:46:24;;;;;;;4.68;4.28;;;32.10;28.70;;;;;;4945452;28;87408;-84
2021/05/30 13:48:50;;;;;;;3.35;2.80;;;32.00;28.70;;;;;;4949088;28;86927;-83
2021/05/30 13:51:17;;;;;;;5.20;4.80;;;31.80;28.50;;;;;;4944487;28;88455;-84
2021/05/30 13:53:49;;;;;;;5.25;4.95;;;31.50;28.90;;;;;;4945306;28;87374;-85
2021/05/30 13:56:15;;;;;;;3.03;2.83;;;31.10;28.80;;;;;;4931284;28;86958;-85
2021/05/30 13:58:42;;;;;;;4.65;4.40;;;30.60;29.10;;;;;;4941865;28;87023;-84
2021/05/30 14:01:10;;;;;;;4.90;4.60;;;30.20;29.20;;;;;;4936026;28;86617;-84
2021/05/30 14:03:38;;;;;;;3.70;3.45;;;30.20;29.60;;;;;;4945626;28;87449;-82
2021/05/30 14:06:04;;;;;;;4.75;4.47;;;30.10;30.00;;;;;;4947430;28;86908;-85
2021/05/30 14:08:30;;;;;;;5.07;4.78;;;30.10;30.70;;;;;;4946449;28;86408;-84
2021/05/30 14:10:56;;;;;;;4.90;4.60;;;30.10;30.70;;;;;;4947178;28;87467;-84
2021/05/30 14:13:22;;;;;;;5.10;4.65;;;30.10;30.20;;;;;;4946116;28;87685;-82
2021/05/30 14:15:47;;;;;;;3.17;2.97;;;29.80;29.60;;;;;;4947272;28;88044;-83
2021/05/30 14:18:13;;;;;;;4.63;4.32;;;29.50;30.30;;;;;;4931145;28;86726;-83
2021/05/30 14:20:39;;;;;;;2.95;2.75;;;29.40;31.00;;;;;;4945033;28;87215;-83
2021/05/30 14:23:05;;;;;;;4.65;4.40;;;29.00;30.30;;;;;;4937790;28;87304;-85
2021/05/30 14:25:31;;;;;;;3.40;3.10;;;29.00;30.90;;;;;;4946696;28;87022;-83
2021/05/30 14:28:01;;;;;;;5.03;4.65;;;28.50;30.70;;;;;;4927334;28;87050;-83
2021/05/30 14:30:31;;;;;;;4.80;4.50;;;28.60;31.80;;;;;;4949828;28;87539;-83
2021/05/30 14:33:00;;;;;;;;;;;28.50;31.80;;;;;;4944578;28;88495;-82
2021/05/30 14:35:26;;;;;;;3.20;2.92;;;28.40;32.90;;;;;;4950718;28;86916;-82
2021/05/30 14:37:52;;;;;;;5.10;4.80;;;28.10;32.50;;;;;;4942119;28;86921;-82
2021/05/30 14:40:22;;;;;;;5.15;4.68;;;27.50;32.60;;;;;;4944697;28;88003;-82
2021/05/30 14:42:48;;;;;;;5.32;4.82;;;27.20;33.20;;;;;;4941557;28;87926;-83
2021/05/30 14:45:14;;;;;;;5.60;5.10;;;26.60;32.50;;;;;;4949067;28;86989;-83
2021/05/30 14:47:40;;;;;;;5.22;4.93;;;26.40;32.90;;;;;;4943808;28;86964;-83
2021/05/30 14:50:06;;;;;;;5.40;5.00;;;26.40;33.40;;;;;;4951660;28;87261;-83
2021/05/30 14:52:32;;;;;;;3.45;3.10;;;26.30;33.80;;;;;;4945905;28;87007;-84
2021/05/30 14:54:57;;;;;;;3.60;3.30;;;26.10;34.30;;;;;;4931898;28;87024;-83
2021/05/30 14:57:23;;;;;;;5.68;5.35;;;26.10;34.30;;;;;;4945511;28;86659;-83
2021/05/30 14:59:49;;;;;;;5.43;4.93;;;;;;;;;;4946200;28;86968;-84
2021/05/30 15:02:15;;;;;;;3.17;2.85;;;26.20;33.90;;;;;;4945082;28;87245;-83
2021/05/30 15:04:41;;;;;;;3.38;3.05;;;25.90;34.50;;;;;;4950304;28;87376;-83
2021/05/30 15:07:06;;;;;;;7.38;5.20;;;25.50;35.20;;;;;;4950823;28;86889;-83
2021/05/30 15:09:32;;;;;;;5.25;4.80;;;25.40;34.60;;;;;;4933437;28;90281;-86
2021/05/30 15:11:58;;;;;;;5.25;4.95;;;25.20;34.90;;;;;;4950911;28;87094;-85
2021/05/30 15:14:24;;;;;;;4.80;4.50;;;25.00;35.60;;;;;;4950997;28;86696;-86
2021/05/30 15:16:49;;;;;;;5.45;5.00;;;24.90;35.40;;;;;;4951138;28;86878;-85
2021/05/30 15:19:15;;;;;;;5.15;4.75;;;24.40;35.30;;;;;;4952601;28;88159;-85
2021/05/30 15:21:43;;;;;;;5.20;4.90;;;24.50;36.10;;;;;;4948766;28;87065;-85
2021/05/30 15:24:10;;;;;;;5.13;4.82;;;24.50;35.90;;;;;;4939437;28;86991;-86
2021/05/30 15:26:36;;;;;;;3.45;3.15;;;24.60;36.40;;;;;;4937426;28;86962;-83
2021/05/30 15:29:01;;;;;;;5.43;5.00;;;24.60;35.30;;;;;;4949393;28;87911;-80
2021/05/30 15:31:27;;;;;;;5.88;5.32;;;;;;;;;;4947717;28;88817;-85
2021/05/30 15:33:53;;;;;;;4.90;4.50;;;24.40;36.70;;;;;;4945343;28;86871;-83
2021/05/30 15:36:19;;;;;;;5.93;5.40;;;23.90;37.50;;;;;;4951067;28;86517;-84
2021/05/30 15:38:47;;;;;;;3.63;3.33;;;23.90;38.10;;;;;;4953996;28;87130;-84
2021/05/30 15:41:14;;;;;;;4.57;3.38;;;23.90;38.00;;;;;;4944381;28;87404;-84
2021/05/30 15:43:40;;;;;;;4.97;4.60;;;23.50;36.90;;;;;;4949536;28;87090;-84
2021/05/30 15:46:06;;;;;;;5.28;4.97;;;;;;;;;;4942671;28;86398;-84
2021/05/30 15:48:32;;;;;;;4.82;4.43;;;23.60;37.50;;;;;;4943381;28;87693;-84
2021/05/30 15:53:42;;;;;;;4.45;3.25;;;23.30;37.70;;;;;;4952204;28;87821;-84
2021/05/30 15:56:08;;;;;;;5.20;4.80;;;23.20;37.50;;;;;;4950433;28;87247;-81
2021/05/30 15:58:34;;;;;;;5.10;4.70;;;23.00;37.20;;;;;;4947959;28;88524;-85
2021/05/30 16:01:00;;;;;;;4.85;4.47;;;23.30;37.00;;;;;;4951160;28;86930;-83
2021/05/30 16:03:26;;;;;;;4.90;4.60;;;23.10;37.40;;;;;;4941554;28;86722;-84
2021/05/30 16:05:52;;;;;;;5.47;4.97;;;22.90;38.00;;;;;;4945392;28;86883;-83
2021/05/30 16:08:17;;;;;;;4.65;4.35;;;23.00;37.80;;;;;;4942060;28;87525;-85
2021/05/30 16:10:44;;;;;;;3.55;3.03;;;22.80;38.00;;;;;;4943325;28;87734;-83
2021/05/30 16:13:10;;;;;;;5.13;4.68;;;22.70;38.70;;;;;;4946370;28;86984;-85
2021/05/30 16:15:36;;;;;;;4.70;4.40;;;;;;;;;;4945471;28;86338;-86
2021/05/30 16:18:02;;;;;;;5.07;4.68;;;22.10;37.90;;;;;;4952785;28;88160;-85
2021/05/30 16:20:28;;;;;;;3.88;3.47;;;22.20;38.30;;;;;;4942852;28;87322;-84
2021/05/30 16:22:54;;;;;;;6.60;4.50;;;;;;;;;;4947575;28;86734;-84
2021/05/30 16:25:20;;;;;;;4.95;4.50;;;22.40;39.60;;;;;;4946900;28;87216;-85
2021/05/30 16:27:46;;;;;;;5.00;4.60;;;22.00;38.90;;;;;;4949630;28;87764;-85
2021/05/30 16:30:12;;;;;;;5.00;4.70;;;;;;;;;;4948594;28;86767;-85
2021/05/30 16:32:38;;;;;;;4.70;4.30;;;22.10;39.40;;;;;;4939861;28;86547;-85
2021/05/30 16:35:04;;;;;;;4.80;4.47;;;22.20;40.20;;;;;;4951135;28;86129;-86
2021/05/30 16:37:31;;;;;;;5.00;4.60;;;21.50;39.60;;;;;;4937352;28;87193;-87
2021/05/30 16:39:57;;;;;;;4.50;3.20;;;21.70;40.10;;;;;;4947252;28;87028;-86
2021/05/30 16:42:22;;;;;;;4.75;4.35;;;21.40;40.20;;;;;;4963871;28;87862;-84
2021/05/30 16:44:48;;;;;;;5.70;4.40;;;;;;;;;;4947718;28;86866;-87
2021/05/30 16:47:14;;;;;;;4.90;4.38;;;21.70;39.60;;;;;;4952650;28;86693;-84
2021/05/30 16:49:40;;;;;;;4.78;4.18;;;21.30;40.00;;;;;;4945283;28;86947;-87
2021/05/30 16:52:07;;;;;;;5.18;4.68;;;19.70;39.20;;;;;;4950798;28;86911;-86
2021/05/30 16:54:34;;;;;;;4.60;4.20;;;20.90;40.20;;;;;;4947903;28;86812;-87
2021/05/30 16:57:00;;;;;;;4.53;4.22;;;;;;;;;;4953010;28;86978;-85
2021/05/30 16:59:26;;;;;;;4.78;4.47;;;;;;;;;;4941741;28;87816;-86
2021/05/30 17:01:52;;;;;;;5.03;4.63;;;;;;;;;;4947186;28;87138;-86
2021/05/30 17:04:19;;;;;;;6.18;4.88;;;20.60;40.70;;;;;;4948377;28;87011;-87